sensor_id;sensor_type;location;lat;lon;timestamp;pressure;altitude;pressure_sealevel;temperature;humidity
51289;BME280;37372;52.294;5.152;2023-09-08T00:01:19;101630.38;;;18.14;100.00
51289;BME280;37372;52.294;5.152;2023-09-08T00:03:45;101633.41;;;18.13;100.00
51289;BME280;37372;52.294;5.152;2023-09-08T00:06:10;101627.59;;;18.14;100.00
51289;BME280;37372;52.294;5.152;2023-09-08T00:08:36;101628.13;;;18.11;100.00
51289;BME280;37372;52.294;5.152;2023-09-08T00:11:01;101620.69;;;18.17;100.00
51289;BME280;37372;52.294;5.152;2023-09-08T00:13:27;101626.81;;;18.19;100.00
51289;BME280;37372;52.294;5.152;2023-09-08T00:15:52;101631.53;;;18.19;100.00
51289;BME280;37372;52.294;5.152;2023-09-08T00:18:17;101628.44;;;18.15;100.00
51289;BME280;37372;52.294;5.152;2023-09-08T00:20:43;101629.81;;;18.12;100.00
51289;BME280;37372;52.294;5.152;2023-09-08T00:23:08;101627.03;;;18.12;100.00
51289;BME280;37372;52.294;5.152;2023-09-08T00:25:33;101624.25;;;18.12;100.00
51289;BME280;37372;52.294;5.152;2023-09-08T00:27:59;101627.28;;;18.11;100.00
51289;BME280;37372;52.294;5.152;2023-09-08T00:30:25;101629.75;;;18.07;100.00
51289;BME280;37372;52.294;5.152;2023-09-08T00:32:50;101628.91;;;18.07;100.00
51289;BME280;37372;52.294;5.152;2023-09-08T00:35:16;101625.56;;;18.05;100.00
51289;BME280;37372;52.294;5.152;2023-09-08T00:37:41;101632.16;;;17.99;100.00
51289;BME280;37372;52.294;5.152;2023-09-08T00:40:07;101632.66;;;17.96;100.00
51289;BME280;37372;52.294;5.152;2023-09-08T00:42:36;101630.69;;;17.91;100.00
51289;BME280;37372;52.294;5.152;2023-09-08T00:45:02;101632.03;;;17.89;100.00
51289;BME280;37372;52.294;5.152;2023-09-08T00:47:28;101631.19;;;17.88;100.00
51289;BME280;37372;52.294;5.152;2023-09-08T00:49:53;101632.31;;;17.87;100.00
51289;BME280;37372;52.294;5.152;2023-09-08T00:52:18;101636.19;;;17.86;100.00
51289;BME280;37372;52.294;5.152;2023-09-08T00:54:44;101635.84;;;17.82;100.00
51289;BME280;37372;52.294;5.152;2023-09-08T00:57:09;101637.53;;;17.83;100.00
51289;BME280;37372;52.294;5.152;2023-09-08T00:59:35;101633.06;;;17.82;100.00
51289;BME280;37372;52.294;5.152;2023-09-08T01:02:04;101631.41;;;17.81;100.00
51289;BME280;37372;52.294;5.152;2023-09-08T01:04:30;101634.44;;;17.80;100.00
51289;BME280;37372;52.294;5.152;2023-09-08T01:06:56;101634.44;;;17.80;100.00
51289;BME280;37372;52.294;5.152;2023-09-08T01:09:23;101625.56;;;17.78;100.00
51289;BME280;37372;52.294;5.152;2023-09-08T01:11:50;101627.72;;;17.76;100.00
51289;BME280;37372;52.294;5.152;2023-09-08T01:14:18;101626.06;;;17.75;100.00
51289;BME280;37372;52.294;5.152;2023-09-08T01:16:44;101621.03;;;17.72;100.00
51289;BME280;37372;52.294;5.152;2023-09-08T01:19:13;101621.78;;;17.67;100.00
51289;BME280;37372;52.294;5.152;2023-09-08T01:22:08;101632.31;;;17.65;100.00
51289;BME280;37372;52.294;5.152;2023-09-08T01:27:47;101629.53;;;17.65;100.00
51289;BME280;37372;52.294;5.152;2023-09-08T01:30:14;101630.59;;;17.64;100.00
51289;BME280;37372;52.294;5.152;2023-09-08T01:32:40;101631.97;;;17.62;100.00
51289;BME280;37372;52.294;5.152;2023-09-08T01:35:07;101634.69;;;17.56;100.00
51289;BME280;37372;52.294;5.152;2023-09-08T01:37:32;101634.59;;;17.51;100.00
51289;BME280;37372;52.294;5.152;2023-09-08T01:39:58;101632.91;;;17.45;100.00
51289;BME280;37372;52.294;5.152;2023-09-08T01:42:23;101627.78;;;17.37;100.00
51289;BME280;37372;52.294;5.152;2023-09-08T01:44:48;101626.03;;;17.31;100.00
51289;BME280;37372;52.294;5.152;2023-09-08T01:47:14;101623.50;;;17.29;100.00
51289;BME280;37372;52.294;5.152;2023-09-08T01:49:39;101616.78;;;17.25;100.00
51289;BME280;37372;52.294;5.152;2023-09-08T01:52:05;101621.75;;;17.23;100.00
51289;BME280;37372;52.294;5.152;2023-09-08T01:54:30;101632.03;;;17.23;100.00
51289;BME280;37372;52.294;5.152;2023-09-08T01:56:55;101613.44;;;17.23;100.00
51289;BME280;37372;52.294;5.152;2023-09-08T01:59:21;101607.06;;;17.23;100.00
51289;BME280;37372;52.294;5.152;2023-09-08T02:01:46;101612.59;;;17.23;100.00
51289;BME280;37372;52.294;5.152;2023-09-08T02:04:12;101619.00;;;17.23;100.00
51289;BME280;37372;52.294;5.152;2023-09-08T02:06:37;101619.81;;;17.24;100.00
51289;BME280;37372;52.294;5.152;2023-09-08T02:09:03;101622.03;;;17.22;100.00
51289;BME280;37372;52.294;5.152;2023-09-08T02:11:29;101626.41;;;17.18;100.00
51289;BME280;37372;52.294;5.152;2023-09-08T02:13:54;101627.75;;;17.15;100.00
51289;BME280;37372;52.294;5.152;2023-09-08T02:16:19;101618.53;;;17.10;100.00
51289;BME280;37372;52.294;5.152;2023-09-08T02:18:45;101615.66;;;17.04;100.00
51289;BME280;37372;52.294;5.152;2023-09-08T02:21:11;101615.34;;;17.01;100.00
51289;BME280;37372;52.294;5.152;2023-09-08T02:23:37;101610.56;;;16.96;100.00
51289;BME280;37372;52.294;5.152;2023-09-08T02:26:02;101614.44;;;16.95;100.00
51289;BME280;37372;52.294;5.152;2023-09-08T02:28:28;101612.16;;;16.92;100.00
51289;BME280;37372;52.294;5.152;2023-09-08T02:30:54;101609.91;;;16.89;100.00
51289;BME280;37372;52.294;5.152;2023-09-08T02:33:19;101611.50;;;16.85;100.00
51289;BME280;37372;52.294;5.152;2023-09-08T02:35:45;101612.03;;;16.82;100.00
51289;BME280;37372;52.294;5.152;2023-09-08T02:38:10;101611.41;;;16.80;100.00
51289;BME280;37372;52.294;5.152;2023-09-08T02:40:36;101608.06;;;16.78;100.00
51289;BME280;37372;52.294;5.152;2023-09-08T02:43:02;101610.84;;;16.78;100.00
51289;BME280;37372;52.294;5.152;2023-09-08T02:45:27;101607.50;;;16.76;100.00
51289;BME280;37372;52.294;5.152;2023-09-08T02:47:53;101611.38;;;16.75;100.00
51289;BME280;37372;52.294;5.152;2023-09-08T02:50:18;101612.44;;;16.74;100.00
51289;BME280;37372;52.294;5.152;2023-09-08T02:52:44;101610.53;;;16.74;100.00
51289;BME280;37372;52.294;5.152;2023-09-08T02:55:10;101606.06;;;16.73;100.00
51289;BME280;37372;52.294;5.152;2023-09-08T02:57:37;101611.38;;;16.75;100.00
51289;BME280;37372;52.294;5.152;2023-09-08T03:00:03;101609.91;;;16.72;100.00
51289;BME280;37372;52.294;5.152;2023-09-08T03:02:30;101613.78;;;16.71;100.00
51289;BME280;37372;52.294;5.152;2023-09-08T03:04:55;101614.88;;;16.70;100.00
51289;BME280;37372;52.294;5.152;2023-09-08T03:07:21;101608.97;;;16.67;100.00
51289;BME280;37372;52.294;5.152;2023-09-08T03:09:46;101606.72;;;16.64;100.00
51289;BME280;37372;52.294;5.152;2023-09-08T03:12:12;101612.53;;;16.62;100.00
51289;BME280;37372;52.294;5.152;2023-09-08T03:14:37;101605.28;;;16.61;100.00
51289;BME280;37372;52.294;5.152;2023-09-08T03:17:03;101608.91;;;16.62;100.00
51289;BME280;37372;52.294;5.152;2023-09-08T03:19:28;101610.31;;;16.64;100.00
51289;BME280;37372;52.294;5.152;2023-09-08T03:21:53;101607.81;;;16.63;100.00
51289;BME280;37372;52.294;5.152;2023-09-08T03:24:19;101605.53;;;16.60;100.00
51289;BME280;37372;52.294;5.152;2023-09-08T03:26:44;101603.28;;;16.57;100.00
51289;BME280;37372;52.294;5.152;2023-09-08T03:29:09;101603.78;;;16.53;100.00
51289;BME280;37372;52.294;5.152;2023-09-08T03:31:35;101598.50;;;16.52;100.00
51289;BME280;37372;52.294;5.152;2023-09-08T03:34:00;101594.88;;;16.51;100.00
51289;BME280;37372;52.294;5.152;2023-09-08T03:36:26;101597.66;;;16.51;100.00
51289;BME280;37372;52.294;5.152;2023-09-08T03:38:51;101589.34;;;16.51;100.00
51289;BME280;37372;52.294;5.152;2023-09-08T03:41:16;101594.88;;;16.51;100.00
51289;BME280;37372;52.294;5.152;2023-09-08T03:43:42;101589.34;;;16.51;100.00
51289;BME280;37372;52.294;5.152;2023-09-08T03:46:07;101595.38;;;16.48;100.00
51289;BME280;37372;52.294;5.152;2023-09-08T03:48:32;101585.06;;;16.44;100.00
51289;BME280;37372;52.294;5.152;2023-09-08T03:50:58;101586.66;;;16.40;100.00
51289;BME280;37372;52.294;5.152;2023-09-08T03:53:24;101587.41;;;16.35;100.00
51289;BME280;37372;52.294;5.152;2023-09-08T03:55:50;101591.53;;;16.33;100.00
51289;BME280;37372;52.294;5.152;2023-09-08T03:58:15;101591.16;;;16.29;100.00
51289;BME280;37372;52.294;5.152;2023-09-08T04:00:41;101590.59;;;16.27;100.00
51289;BME280;37372;52.294;5.152;2023-09-08T04:03:07;101583.03;;;16.22;100.00
51289;BME280;37372;52.294;5.152;2023-09-08T04:05:33;101592.44;;;16.21;100.00
51289;BME280;37372;52.294;5.152;2023-09-08T04:07:58;101592.09;;;16.18;100.00
51289;BME280;37372;52.294;5.152;2023-09-08T04:10:24;101593.19;;;16.17;100.00
51289;BME280;37372;52.294;5.152;2023-09-08T04:12:49;101591.50;;;16.16;100.00
51289;BME280;37372;52.294;5.152;2023-09-08T04:15:15;101585.38;;;16.14;100.00
51289;BME280;37372;52.294;5.152;2023-09-08T04:17:40;101592.00;;;16.13;100.00
51289;BME280;37372;52.294;5.152;2023-09-08T04:20:06;101593.94;;;16.12;100.00
51289;BME280;37372;52.294;5.152;2023-09-08T04:22:33;101589.50;;;16.11;100.00
51289;BME280;37372;52.294;5.152;2023-09-08T04:24:59;101587.06;;;16.15;100.00
51289;BME280;37372;52.294;5.152;2023-09-08T04:27:25;101582.34;;;16.15;100.00
51289;BME280;37372;52.294;5.152;2023-09-08T04:29:50;101583.19;;;16.16;100.00
51289;BME280;37372;52.294;5.152;2023-09-08T04:32:15;101581.25;;;16.16;100.00
51289;BME280;37372;52.294;5.152;2023-09-08T04:34:42;101586.78;;;16.16;100.00
51289;BME280;37372;52.294;5.152;2023-09-08T04:37:08;101584.28;;;16.15;100.00
51289;BME280;37372;52.294;5.152;2023-09-08T04:39:34;101587.31;;;16.13;100.00
51289;BME280;37372;52.294;5.152;2023-09-08T04:42:00;101585.91;;;16.11;100.00
51289;BME280;37372;52.294;5.152;2023-09-08T04:44:26;101584.78;;;16.12;100.00
51289;BME280;37372;52.294;5.152;2023-09-08T04:46:52;101582.03;;;16.12;100.00
51289;BME280;37372;52.294;5.152;2023-09-08T04:49:18;101585.06;;;16.10;100.00
51289;BME280;37372;52.294;5.152;2023-09-08T04:51:43;101591.16;;;16.12;100.00
51289;BME280;37372;52.294;5.152;2023-09-08T04:54:09;101587.56;;;16.12;100.00
51289;BME280;37372;52.294;5.152;2023-09-08T04:56:34;101584.78;;;16.12;100.00
51289;BME280;37372;52.294;5.152;2023-09-08T04:59:00;101586.47;;;16.13;100.00
51289;BME280;37372;52.294;5.152;2023-09-08T05:01:29;101590.34;;;16.12;100.00
51289;BME280;37372;52.294;5.152;2023-09-08T05:03:58;101588.16;;;16.14;100.00
51289;BME280;37372;52.294;5.152;2023-09-08T05:06:24;101593.69;;;16.14;100.00
51289;BME280;37372;52.294;5.152;2023-09-08T05:08:50;101587.88;;;16.15;100.00
51289;BME280;37372;52.294;5.152;2023-09-08T05:11:15;101586.78;;;16.16;100.00
51289;BME280;37372;52.294;5.152;2023-09-08T05:13:42;101585.13;;;16.15;100.00
51289;BME280;37372;52.294;5.152;2023-09-08T05:16:07;101590.06;;;16.13;100.00
51289;BME280;37372;52.294;5.152;2023-09-08T05:18:39;101589.81;;;16.15;100.00
51289;BME280;37372;52.294;5.152;2023-09-08T05:21:05;101593.19;;;16.17;100.00
51289;BME280;37372;52.294;5.152;2023-09-08T05:23:31;101586.78;;;16.16;100.00
51289;BME280;37372;52.294;5.152;2023-09-08T05:25:56;101584.28;;;16.15;100.00
51289;BME280;37372;52.294;5.152;2023-09-08T05:28:21;101587.06;;;16.15;100.00
51289;BME280;37372;52.294;5.152;2023-09-08T05:30:47;101585.97;;;16.16;100.00
51289;BME280;37372;52.294;5.152;2023-09-08T05:33:12;101592.34;;;16.16;100.00
51289;BME280;37372;52.294;5.152;2023-09-08T05:35:38;101595.97;;;16.17;100.00
51289;BME280;37372;52.294;5.152;2023-09-08T05:38:03;101592.94;;;16.18;100.00
51289;BME280;37372;52.294;5.152;2023-09-08T05:40:29;101595.56;;;16.25;100.00
51289;BME280;37372;52.294;5.152;2023-09-08T05:42:54;101592.88;;;16.30;100.00
51289;BME280;37372;52.294;5.152;2023-09-08T05:45:20;101604.63;;;16.37;100.00
51289;BME280;37372;52.294;5.152;2023-09-08T05:47:45;101593.38;;;16.44;100.00
51289;BME280;37372;52.294;5.152;2023-09-08T05:50:10;101596.56;;;16.52;100.00
51289;BME280;37372;52.294;5.152;2023-09-08T05:52:36;101593.88;;;16.58;100.00
51289;BME280;37372;52.294;5.152;2023-09-08T05:55:01;101602.00;;;16.64;100.00
51289;BME280;37372;52.294;5.152;2023-09-08T05:57:27;101601.03;;;16.70;100.00
51289;BME280;37372;52.294;5.152;2023-09-08T05:59:52;101594.22;;;16.78;100.00
51289;BME280;37372;52.294;5.152;2023-09-08T06:02:18;101602.09;;;16.86;100.00
51289;BME280;37372;52.294;5.152;2023-09-08T06:04:43;101604.44;;;16.94;100.00
51289;BME280;37372;52.294;5.152;2023-09-08T06:07:09;101602.56;;;17.00;100.00
51289;BME280;37372;52.294;5.152;2023-09-08T06:09:34;101616.00;;;17.08;100.00
51289;BME280;37372;52.294;5.152;2023-09-08T06:12:00;101612.22;;;17.14;100.00
51289;BME280;37372;52.294;5.152;2023-09-08T06:14:25;101623.63;;;17.18;100.00
51289;BME280;37372;52.294;5.152;2023-09-08T06:16:51;101621.50;;;17.25;100.00
51289;BME280;37372;52.294;5.152;2023-09-08T06:19:16;101623.25;;;17.31;100.00
51289;BME280;37372;52.294;5.152;2023-09-08T06:21:42;101632.81;;;17.40;100.00
51289;BME280;37372;52.294;5.152;2023-09-08T06:24:07;101630.94;;;17.46;100.00
51289;BME280;37372;52.294;5.152;2023-09-08T06:26:33;101631.81;;;17.51;100.00
51289;BME280;37372;52.294;5.152;2023-09-08T06:28:58;101632.16;;;17.55;100.00
51289;BME280;37372;52.294;5.152;2023-09-08T06:31:23;101636.94;;;17.59;100.00
51289;BME280;37372;52.294;5.152;2023-09-08T06:33:49;101634.25;;;17.65;100.00
51289;BME280;37372;52.294;5.152;2023-09-08T06:36:17;101636.22;;;17.69;100.00
51289;BME280;37372;52.294;5.152;2023-09-08T06:38:43;101636.31;;;17.74;100.00
51289;BME280;37372;52.294;5.152;2023-09-08T06:41:10;101629.16;;;17.78;100.00
51289;BME280;37372;52.294;5.152;2023-09-08T06:43:36;101632.31;;;17.87;100.00
51289;BME280;37372;52.294;5.152;2023-09-08T06:46:02;101637.91;;;17.92;100.00
51289;BME280;37372;52.294;5.152;2023-09-08T06:48:29;101635.22;;;17.97;100.00
51289;BME280;37372;52.294;5.152;2023-09-08T06:50:55;101641.13;;;18.06;100.00
51289;BME280;37372;52.294;5.152;2023-09-08T06:53:24;101635.94;;;18.14;100.00
51289;BME280;37372;52.294;5.152;2023-09-08T06:55:50;101632.38;;;18.19;100.00
51289;BME280;37372;52.294;5.152;2023-09-08T06:58:15;101636.03;;;18.25;100.00
51289;BME280;37372;52.294;5.152;2023-09-08T07:00:42;101644.44;;;18.30;100.00
51289;BME280;37372;52.294;5.152;2023-09-08T07:03:08;101646.16;;;18.36;100.00
51289;BME280;37372;52.294;5.152;2023-09-08T07:05:34;101646.22;;;18.46;100.00
51289;BME280;37372;52.294;5.152;2023-09-08T07:07:59;101644.06;;;18.53;100.00
51289;BME280;37372;52.294;5.152;2023-09-08T07:10:25;101643.00;;;18.59;100.00
51289;BME280;37372;52.294;5.152;2023-09-08T07:12:50;101638.94;;;18.67;100.00
51289;BME280;37372;52.294;5.152;2023-09-08T07:15:16;101633.75;;;18.76;100.00
51289;BME280;37372;52.294;5.152;2023-09-08T07:17:41;101629.34;;;18.85;100.00
51289;BME280;37372;52.294;5.152;2023-09-08T07:20:07;101640.78;;;18.88;100.00
51289;BME280;37372;52.294;5.152;2023-09-08T07:22:33;101639.13;;;18.92;100.00
51289;BME280;37372;52.294;5.152;2023-09-08T07:24:58;101642.53;;;19.05;100.00
51289;BME280;37372;52.294;5.152;2023-09-08T07:27:24;101641.75;;;19.09;100.00
51289;BME280;37372;52.294;5.152;2023-09-08T07:29:49;101636.22;;;19.14;100.00
51289;BME280;37372;52.294;5.152;2023-09-08T07:32:15;101640.72;;;19.20;100.00
51289;BME280;37372;52.294;5.152;2023-09-08T07:34:41;101645.22;;;19.32;100.00
51289;BME280;37372;52.294;5.152;2023-09-08T07:37:06;101643.00;;;19.34;100.00
51289;BME280;37372;52.294;5.152;2023-09-08T07:39:32;101642.50;;;19.42;100.00
51289;BME280;37372;52.294;5.152;2023-09-08T07:41:58;101641.13;;;19.49;100.00
51289;BME280;37372;52.294;5.152;2023-09-08T07:44:23;101638.16;;;19.61;100.00
51289;BME280;37372;52.294;5.152;2023-09-08T07:46:49;101644.34;;;19.73;100.00
51289;BME280;37372;52.294;5.152;2023-09-08T07:49:16;101639.34;;;19.81;100.00
51289;BME280;37372;52.294;5.152;2023-09-08T07:51:44;101646.34;;;19.93;100.00
51289;BME280;37372;52.294;5.152;2023-09-08T07:54:09;101649.72;;;20.06;100.00
51289;BME280;37372;52.294;5.152;2023-09-08T07:56:35;101645.56;;;20.13;100.00
51289;BME280;37372;52.294;5.152;2023-09-08T07:59:00;101640.81;;;20.09;100.00
51289;BME280;37372;52.294;5.152;2023-09-08T08:01:26;101645.28;;;20.15;100.00
51289;BME280;37372;52.294;5.152;2023-09-08T08:03:51;101641.97;;;20.23;100.00
51289;BME280;37372;52.294;5.152;2023-09-08T08:06:16;101630.81;;;20.33;100.00
51289;BME280;37372;52.294;5.152;2023-09-08T08:08:42;101633.91;;;20.42;100.00
51289;BME280;37372;52.294;5.152;2023-09-08T08:11:15;101630.00;;;20.43;100.00
51289;BME280;37372;52.294;5.152;2023-09-08T08:13:40;101634.22;;;20.50;100.00
51289;BME280;37372;52.294;5.152;2023-09-08T08:16:07;101632.25;;;20.66;100.00
51289;BME280;37372;52.294;5.152;2023-09-08T08:18:32;101630.59;;;20.70;100.00
51289;BME280;37372;52.294;5.152;2023-09-08T08:20:58;101625.28;;;20.79;100.00
51289;BME280;37372;52.294;5.152;2023-09-08T08:23:23;101631.97;;;20.88;100.00
51289;BME280;37372;52.294;5.152;2023-09-08T08:25:49;101628.31;;;21.08;98.20
51289;BME280;37372;52.294;5.152;2023-09-08T08:28:14;101629.16;;;21.14;98.26
51289;BME280;37372;52.294;5.152;2023-09-08T08:30:40;101624.41;;;21.14;98.66
51289;BME280;37372;52.294;5.152;2023-09-08T08:33:06;101617.94;;;21.19;98.97
51289;BME280;37372;52.294;5.152;2023-09-08T08:35:31;101630.78;;;21.35;97.98
51289;BME280;37372;52.294;5.152;2023-09-08T08:38:00;101629.38;;;21.38;97.87
51289;BME280;37372;52.294;5.152;2023-09-08T08:40:26;101629.88;;;21.50;97.84
51289;BME280;37372;52.294;5.152;2023-09-08T08:42:56;101627.31;;;21.63;96.51
51289;BME280;37372;52.294;5.152;2023-09-08T08:45:25;101627.19;;;21.89;94.06
51289;BME280;37372;52.294;5.152;2023-09-08T08:47:51;101629.72;;;21.85;95.25
51289;BME280;37372;52.294;5.152;2023-09-08T08:50:17;101637.81;;;21.87;94.74
51289;BME280;37372;52.294;5.152;2023-09-08T08:52:44;101639.16;;;21.95;95.16
51289;BME280;37372;52.294;5.152;2023-09-08T08:55:09;101634.91;;;22.07;93.45
51289;BME280;37372;52.294;5.152;2023-09-08T08:57:39;101641.66;;;22.01;94.50
51289;BME280;37372;52.294;5.152;2023-09-08T09:00:09;101641.03;;;22.14;94.97
51289;BME280;37372;52.294;5.152;2023-09-08T09:02:39;101636.56;;;22.19;94.80
51289;BME280;37372;52.294;5.152;2023-09-08T09:05:05;101644.34;;;22.22;94.88
51289;BME280;37372;52.294;5.152;2023-09-08T09:07:32;101642.91;;;22.29;94.69
51289;BME280;37372;52.294;5.152;2023-09-08T09:09:58;101645.84;;;22.48;93.72
51289;BME280;37372;52.294;5.152;2023-09-08T09:12:24;101642.63;;;22.65;92.89
51289;BME280;37372;52.294;5.152;2023-09-08T09:14:52;101643.72;;;22.69;93.36
51289;BME280;37372;52.294;5.152;2023-09-08T09:17:20;101643.19;;;22.67;93.42
51289;BME280;37372;52.294;5.152;2023-09-08T09:19:46;101639.88;;;22.60;92.57
51289;BME280;37372;52.294;5.152;2023-09-08T09:22:11;101648.78;;;22.67;93.82
51289;BME280;37372;52.294;5.152;2023-09-08T09:24:41;101641.25;;;22.62;92.83
51289;BME280;37372;52.294;5.152;2023-09-08T09:27:09;101646.97;;;22.86;92.85
51289;BME280;37372;52.294;5.152;2023-09-08T09:29:44;101646.00;;;22.96;92.56
51289;BME280;37372;52.294;5.152;2023-09-08T09:32:11;101647.28;;;23.09;91.15
51289;BME280;37372;52.294;5.152;2023-09-08T09:34:47;101652.66;;;23.29;89.74
51289;BME280;37372;52.294;5.152;2023-09-08T09:37:12;101640.88;;;23.32;90.67
51289;BME280;37372;52.294;5.152;2023-09-08T09:39:38;101640.75;;;23.42;90.46
51289;BME280;37372;52.294;5.152;2023-09-08T09:42:04;101643.03;;;23.40;90.40
51289;BME280;37372;52.294;5.152;2023-09-08T09:44:29;101641.53;;;23.48;90.46
51289;BME280;37372;52.294;5.152;2023-09-08T09:46:55;101640.03;;;23.56;88.84
51289;BME280;37372;52.294;5.152;2023-09-08T09:49:21;101647.38;;;23.51;90.23
51289;BME280;37372;52.294;5.152;2023-09-08T09:51:48;101638.19;;;23.70;89.08
51289;BME280;37372;52.294;5.152;2023-09-08T09:54:14;101645.97;;;23.78;91.03
51289;BME280;37372;52.294;5.152;2023-09-08T09:56:40;101639.97;;;23.85;88.29
51289;BME280;37372;52.294;5.152;2023-09-08T09:59:10;101640.88;;;23.80;87.18
51289;BME280;37372;52.294;5.152;2023-09-08T10:01:36;101640.19;;;23.88;87.41
51289;BME280;37372;52.294;5.152;2023-09-08T10:04:03;101637.03;;;23.95;86.47
51289;BME280;37372;52.294;5.152;2023-09-08T10:06:36;101636.00;;;24.10;87.08
51289;BME280;37372;52.294;5.152;2023-09-08T10:09:04;101638.31;;;24.21;87.18
51289;BME280;37372;52.294;5.152;2023-09-08T10:11:48;101634.09;;;24.24;87.08
51289;BME280;37372;52.294;5.152;2023-09-08T10:14:18;101629.09;;;24.40;87.23
51289;BME280;37372;52.294;5.152;2023-09-08T10:16:45;101623.91;;;24.47;86.53
51289;BME280;37372;52.294;5.152;2023-09-08T10:19:16;101624.41;;;24.35;87.87
51289;BME280;37372;52.294;5.152;2023-09-08T10:21:43;101626.00;;;24.41;86.81
51289;BME280;37372;52.294;5.152;2023-09-08T10:24:21;101626.22;;;24.45;85.62
51289;BME280;37372;52.294;5.152;2023-09-08T10:29:27;101615.47;;;24.66;86.05
51289;BME280;37372;52.294;5.152;2023-09-08T10:31:53;101622.53;;;24.63;86.53
51289;BME280;37372;52.294;5.152;2023-09-08T10:34:20;101628.28;;;24.72;85.66
51289;BME280;37372;52.294;5.152;2023-09-08T10:36:46;101627.28;;;24.81;85.37
51289;BME280;37372;52.294;5.152;2023-09-08T10:39:37;101624.78;;;24.80;86.29
51289;BME280;37372;52.294;5.152;2023-09-08T10:50:19;101624.03;;;25.07;81.59
51289;BME280;37372;52.294;5.152;2023-09-08T10:52:45;101621.66;;;25.14;81.74
51289;BME280;37372;52.294;5.152;2023-09-08T10:55:11;101627.03;;;25.24;80.82
51289;BME280;37372;52.294;5.152;2023-09-08T10:57:38;101630.72;;;25.25;79.93
51289;BME280;37372;52.294;5.152;2023-09-08T11:00:09;101628.09;;;25.28;79.93
51289;BME280;37372;52.294;5.152;2023-09-08T11:02:41;101627.19;;;25.33;79.99
51289;BME280;37372;52.294;5.152;2023-09-08T11:05:12;101629.97;;;25.33;81.38
51289;BME280;37372;52.294;5.152;2023-09-08T11:07:40;101627.09;;;25.38;81.46
51289;BME280;37372;52.294;5.152;2023-09-08T11:10:06;101629.75;;;25.29;81.20
51289;BME280;37372;52.294;5.152;2023-09-08T11:12:33;101627.09;;;25.38;80.34
51289;BME280;37372;52.294;5.152;2023-09-08T11:14:59;101623.03;;;25.44;78.80
51289;BME280;37372;52.294;5.152;2023-09-08T11:17:33;101625.59;;;25.54;79.84
51289;BME280;37372;52.294;5.152;2023-09-08T11:20:00;101624.03;;;25.62;80.22
51289;BME280;37372;52.294;5.152;2023-09-08T11:22:26;101626.75;;;25.67;80.44
51289;BME280;37372;52.294;5.152;2023-09-08T11:24:52;101625.28;;;25.56;79.05
51289;BME280;37372;52.294;5.152;2023-09-08T11:27:19;101638.50;;;25.55;76.63
51289;BME280;37372;52.294;5.152;2023-09-08T11:29:45;101632.47;;;25.62;76.78
51289;BME280;37372;52.294;5.152;2023-09-08T11:32:11;101633.44;;;25.57;76.79
51289;BME280;37372;52.294;5.152;2023-09-08T11:34:37;101634.34;;;25.66;76.61
51289;BME280;37372;52.294;5.152;2023-09-08T11:37:10;101628.94;;;25.70;76.18
51289;BME280;37372;52.294;5.152;2023-09-08T11:39:41;101630.78;;;25.88;76.49
51289;BME280;37372;52.294;5.152;2023-09-08T11:42:07;101636.41;;;26.02;75.43
51289;BME280;37372;52.294;5.152;2023-09-08T11:44:34;101635.97;;;25.95;76.14
51289;BME280;37372;52.294;5.152;2023-09-08T11:47:01;101638.63;;;25.91;76.15
51289;BME280;37372;52.294;5.152;2023-09-08T11:49:35;101622.59;;;25.78;76.94
51289;BME280;37372;52.294;5.152;2023-09-08T11:52:01;101631.63;;;25.89;75.51
51289;BME280;37372;52.294;5.152;2023-09-08T11:54:27;101628.69;;;25.94;76.69
51289;BME280;37372;52.294;5.152;2023-09-08T11:56:54;101635.44;;;26.07;75.13
51289;BME280;37372;52.294;5.152;2023-09-08T11:59:20;101635.56;;;26.02;76.79
51289;BME280;37372;52.294;5.152;2023-09-08T12:01:45;101629.78;;;26.20;75.14
51289;BME280;37372;52.294;5.152;2023-09-08T12:04:18;101638.91;;;26.04;74.30
51289;BME280;37372;52.294;5.152;2023-09-08T12:06:52;101634.72;;;26.01;75.53
51289;BME280;37372;52.294;5.152;2023-09-08T12:09:20;101633.59;;;26.02;75.73
51289;BME280;37372;52.294;5.152;2023-09-08T12:11:45;101635.16;;;26.08;75.73
51289;BME280;37372;52.294;5.152;2023-09-08T12:14:12;101623.91;;;26.08;74.18
51289;BME280;37372;52.294;5.152;2023-09-08T12:16:38;101632.00;;;26.10;76.24
51289;BME280;37372;52.294;5.152;2023-09-08T12:19:04;101633.47;;;26.07;75.82
51289;BME280;37372;52.294;5.152;2023-09-08T12:21:29;101626.81;;;26.03;76.50
51289;BME280;37372;52.294;5.152;2023-09-08T12:23:57;101623.97;;;26.17;76.01
51289;BME280;37372;52.294;5.152;2023-09-08T12:26:24;101629.53;;;26.08;77.21
51289;BME280;37372;52.294;5.152;2023-09-08T12:28:50;101625.56;;;26.09;77.24
51289;BME280;37372;52.294;5.152;2023-09-08T12:31:17;101626.19;;;26.06;78.15
51289;BME280;37372;52.294;5.152;2023-09-08T12:33:43;101621.47;;;26.15;76.03
51289;BME280;37372;52.294;5.152;2023-09-08T12:36:17;101622.31;;;26.16;75.78
51289;BME280;37372;52.294;5.152;2023-09-08T12:38:50;101628.75;;;26.16;75.92
51289;BME280;37372;52.294;5.152;2023-09-08T12:41:16;101618.72;;;26.24;74.38
51289;BME280;37372;52.294;5.152;2023-09-08T12:43:42;101607.38;;;26.29;75.39
51289;BME280;37372;52.294;5.152;2023-09-08T12:46:07;101612.06;;;26.20;75.27
51289;BME280;37372;52.294;5.152;2023-09-08T12:48:33;101609.97;;;26.26;75.76
51289;BME280;37372;52.294;5.152;2023-09-08T12:50:58;101608.50;;;26.42;74.03
51289;BME280;37372;52.294;5.152;2023-09-08T12:53:24;101609.03;;;26.53;72.11